Nearby METAR Reports

 

EGQL - Leuchars Raf, United Kingdom
Distance from station: SW 11mi, 17km
Updated: 17/08/2018 15:50
Mostly cloudy
Mostly cloudy
 Wind from WSW
Wind: WSW 22 mph , 35 km/h
Temperature: 17°C
Dew Point: 12°C
Humidity: 73%
Barometer: 1008 hPa
Clouds: Mostly cloudy
Visibility: 6 miles , 10 km
Cloud details: Mostly cloudy 671 m
2018/08/17 14:50 EGQL 171450Z 24019KT 9999 BKN022 17/12 Q1008 WHT
EGPN - Dundee/Riverside, United Kingdom
Distance from station: WSW 13mi, 20km
Updated: 17/08/2018 16:20
Mostly cloudy
Mostly cloudy
 Wind from WSW
Wind: WSW 20 mph , 31 km/h
Temperature: 16°C
Dew Point: 13°C
Humidity: 83%
Barometer: 1008 hPa
Clouds: Mostly cloudy
Visibility: 6 miles , 10 km
Cloud details: Few Clouds 457 m
Mostly cloudy 610 m
2018/08/17 15:20 EGPN 171520Z 24017KT 9999 FEW015 BKN020 16/13 Q1008
 
EGPH - Edinburgh Airpor, United Kingdom
Distance from station: SSW 46mi, 74km
Updated: 17/08/2018 16:20
Partly cloudy
Partly cloudy
 Wind from SW
Wind: SW 20 mph , 31 km/h, Gust: 31 mph , 50 km/h
Temperature: 16°C
Dew Point: 13°C
Humidity: 83%
Barometer: 1009 hPa
Clouds: Partly cloudy
Visibility: 6 miles , 10 km
Cloud details: Partly cloudy 549 m
2018/08/17 15:20 EGPH 171520Z 22017G27KT 9999 SCT018 16/13 Q1009
EGPD - Aberdeen/Dyce, United Kingdom
Distance from station: NNE 51mi, 82km
Updated: 17/08/2018 16:20
Mostly cloudy
Mostly cloudy
 Wind from S
Wind: S 17 mph , 28 km/h
Temperature: 16°C
Dew Point: 11°C
Humidity: 72%
Barometer: 1007 hPa
Clouds: Mostly cloudy
Visibility: 6 miles , 10 km
Cloud details: Mostly cloudy 701 m
2018/08/17 15:20 EGPD 171520Z AUTO 19015KT 9999 BKN023 16/11 Q1007 NOSIG